sensor_id;sensor_type;location;lat;lon;timestamp;P1;durP1;ratioP1;P2;durP2;ratioP2
76729;SDS011;65653;53.106;18.046;2023-05-10T00:00:18;3.40;;;1.80;;
76729;SDS011;65653;53.106;18.046;2023-05-10T00:03:07;3.20;;;1.90;;
76729;SDS011;65653;53.106;18.046;2023-05-10T00:05:34;3.80;;;1.80;;
76729;SDS011;65653;53.106;18.046;2023-05-10T00:08:00;2.00;;;1.50;;
76729;SDS011;65653;53.106;18.046;2023-05-10T00:10:28;5.80;;;2.60;;
76729;SDS011;65653;53.106;18.046;2023-05-10T00:12:54;5.30;;;2.30;;
76729;SDS011;65653;53.106;18.046;2023-05-10T00:15:21;1.90;;;1.70;;
76729;SDS011;65653;53.106;18.046;2023-05-10T00:17:47;3.00;;;1.90;;
76729;SDS011;65653;53.106;18.046;2023-05-10T00:20:14;2.30;;;1.60;;
76729;SDS011;65653;53.106;18.046;2023-05-10T00:22:41;2.20;;;1.60;;
76729;SDS011;65653;53.106;18.046;2023-05-10T00:25:08;2.40;;;1.60;;
76729;SDS011;65653;53.106;18.046;2023-05-10T00:27:35;2.60;;;1.70;;
76729;SDS011;65653;53.106;18.046;2023-05-10T00:30:02;4.50;;;1.90;;
76729;SDS011;65653;53.106;18.046;2023-05-10T00:32:29;2.60;;;1.70;;
76729;SDS011;65653;53.106;18.046;2023-05-10T00:34:56;4.20;;;1.90;;
76729;SDS011;65653;53.106;18.046;2023-05-10T00:37:23;3.50;;;1.80;;
76729;SDS011;65653;53.106;18.046;2023-05-10T00:39:50;3.60;;;1.50;;
76729;SDS011;65653;53.106;18.046;2023-05-10T00:42:16;4.00;;;2.40;;
76729;SDS011;65653;53.106;18.046;2023-05-10T00:44:44;2.80;;;1.90;;
76729;SDS011;65653;53.106;18.046;2023-05-10T00:47:10;3.50;;;1.80;;
76729;SDS011;65653;53.106;18.046;2023-05-10T00:49:37;2.30;;;1.70;;
76729;SDS011;65653;53.106;18.046;2023-05-10T00:52:05;3.10;;;1.90;;
76729;SDS011;65653;53.106;18.046;2023-05-10T00:54:32;4.80;;;2.40;;
76729;SDS011;65653;53.106;18.046;2023-05-10T00:56:58;3.00;;;1.90;;
76729;SDS011;65653;53.106;18.046;2023-05-10T00:59:25;3.30;;;2.00;;
76729;SDS011;65653;53.106;18.046;2023-05-10T01:01:52;3.80;;;2.00;;
76729;SDS011;65653;53.106;18.046;2023-05-10T01:04:19;5.60;;;2.00;;
76729;SDS011;65653;53.106;18.046;2023-05-10T01:06:51;3.60;;;2.00;;
76729;SDS011;65653;53.106;18.046;2023-05-10T01:09:21;3.70;;;2.20;;
76729;SDS011;65653;53.106;18.046;2023-05-10T01:11:48;1.90;;;1.60;;
76729;SDS011;65653;53.106;18.046;2023-05-10T01:14:16;3.60;;;2.10;;
76729;SDS011;65653;53.106;18.046;2023-05-10T01:16:46;3.90;;;2.00;;
76729;SDS011;65653;53.106;18.046;2023-05-10T01:19:19;2.70;;;2.00;;
76729;SDS011;65653;53.106;18.046;2023-05-10T01:27:40;5.70;;;2.10;;
76729;SDS011;65653;53.106;18.046;2023-05-10T01:30:35;1.60;;;1.40;;
76729;SDS011;65653;53.106;18.046;2023-05-10T01:46:36;2.30;;;1.50;;
76729;SDS011;65653;53.106;18.046;2023-05-10T01:49:08;5.10;;;2.00;;
76729;SDS011;65653;53.106;18.046;2023-05-10T01:51:41;3.30;;;1.90;;
76729;SDS011;65653;53.106;18.046;2023-05-10T01:54:13;4.10;;;1.80;;
76729;SDS011;65653;53.106;18.046;2023-05-10T01:56:40;3.70;;;2.00;;
76729;SDS011;65653;53.106;18.046;2023-05-10T01:59:12;4.70;;;1.80;;
76729;SDS011;65653;53.106;18.046;2023-05-10T02:01:41;3.60;;;2.20;;
76729;SDS011;65653;53.106;18.046;2023-05-10T02:04:11;7.20;;;2.20;;
76729;SDS011;65653;53.106;18.046;2023-05-10T02:06:41;3.70;;;2.30;;
76729;SDS011;65653;53.106;18.046;2023-05-10T02:09:10;3.70;;;2.30;;
76729;SDS011;65653;53.106;18.046;2023-05-10T02:11:39;5.10;;;2.20;;
76729;SDS011;65653;53.106;18.046;2023-05-10T02:14:07;6.70;;;2.70;;
76729;SDS011;65653;53.106;18.046;2023-05-10T02:16:37;4.20;;;2.40;;
76729;SDS011;65653;53.106;18.046;2023-05-10T02:19:06;4.90;;;2.20;;
76729;SDS011;65653;53.106;18.046;2023-05-10T02:21:35;5.40;;;2.60;;
76729;SDS011;65653;53.106;18.046;2023-05-10T02:24:04;4.90;;;2.70;;
76729;SDS011;65653;53.106;18.046;2023-05-10T02:26:32;4.40;;;2.40;;
76729;SDS011;65653;53.106;18.046;2023-05-10T02:29:02;3.60;;;2.30;;
76729;SDS011;65653;53.106;18.046;2023-05-10T02:31:32;7.50;;;2.90;;
76729;SDS011;65653;53.106;18.046;2023-05-10T02:33:59;3.90;;;2.30;;
76729;SDS011;65653;53.106;18.046;2023-05-10T02:36:28;5.70;;;2.50;;
76729;SDS011;65653;53.106;18.046;2023-05-10T02:38:55;3.70;;;2.20;;
76729;SDS011;65653;53.106;18.046;2023-05-10T02:41:24;4.70;;;2.40;;
76729;SDS011;65653;53.106;18.046;2023-05-10T02:43:55;3.60;;;1.70;;
76729;SDS011;65653;53.106;18.046;2023-05-10T02:46:26;3.70;;;2.10;;
76729;SDS011;65653;53.106;18.046;2023-05-10T02:48:53;6.10;;;2.70;;
76729;SDS011;65653;53.106;18.046;2023-05-10T02:51:20;3.90;;;2.10;;
76729;SDS011;65653;53.106;18.046;2023-05-10T02:53:51;7.60;;;3.10;;
76729;SDS011;65653;53.106;18.046;2023-05-10T02:56:23;8.80;;;3.10;;
76729;SDS011;65653;53.106;18.046;2023-05-10T02:58:55;7.30;;;3.00;;
76729;SDS011;65653;53.106;18.046;2023-05-10T03:01:21;5.40;;;2.60;;
76729;SDS011;65653;53.106;18.046;2023-05-10T03:03:48;6.40;;;3.00;;
76729;SDS011;65653;53.106;18.046;2023-05-10T03:06:15;5.30;;;2.60;;
76729;SDS011;65653;53.106;18.046;2023-05-10T03:08:43;5.10;;;2.40;;
76729;SDS011;65653;53.106;18.046;2023-05-10T03:11:16;8.60;;;3.00;;
76729;SDS011;65653;53.106;18.046;2023-05-10T03:14:04;3.60;;;2.10;;
76729;SDS011;65653;53.106;18.046;2023-05-10T03:16:47;5.40;;;2.60;;
76729;SDS011;65653;53.106;18.046;2023-05-10T03:19:32;7.60;;;2.50;;
76729;SDS011;65653;53.106;18.046;2023-05-10T03:22:08;4.30;;;2.20;;
76729;SDS011;65653;53.106;18.046;2023-05-10T03:24:36;4.60;;;2.60;;
76729;SDS011;65653;53.106;18.046;2023-05-10T03:27:06;3.40;;;2.20;;
76729;SDS011;65653;53.106;18.046;2023-05-10T03:29:35;4.60;;;2.90;;
76729;SDS011;65653;53.106;18.046;2023-05-10T03:32:03;5.50;;;3.20;;
76729;SDS011;65653;53.106;18.046;2023-05-10T03:34:30;3.80;;;2.00;;
76729;SDS011;65653;53.106;18.046;2023-05-10T03:36:57;3.60;;;2.10;;
76729;SDS011;65653;53.106;18.046;2023-05-10T03:39:24;4.70;;;2.80;;
76729;SDS011;65653;53.106;18.046;2023-05-10T03:41:51;3.70;;;2.60;;
76729;SDS011;65653;53.106;18.046;2023-05-10T03:44:18;4.40;;;2.70;;
76729;SDS011;65653;53.106;18.046;2023-05-10T03:46:45;3.70;;;2.50;;
76729;SDS011;65653;53.106;18.046;2023-05-10T03:49:12;3.30;;;2.40;;
76729;SDS011;65653;53.106;18.046;2023-05-10T03:51:39;5.40;;;2.20;;
76729;SDS011;65653;53.106;18.046;2023-05-10T03:54:06;4.10;;;2.30;;
76729;SDS011;65653;53.106;18.046;2023-05-10T03:56:32;4.10;;;2.00;;
76729;SDS011;65653;53.106;18.046;2023-05-10T03:58:59;3.50;;;2.20;;
76729;SDS011;65653;53.106;18.046;2023-05-10T04:01:27;7.20;;;2.40;;
76729;SDS011;65653;53.106;18.046;2023-05-10T04:03:53;5.10;;;2.80;;
76729;SDS011;65653;53.106;18.046;2023-05-10T04:06:20;6.40;;;2.60;;
76729;SDS011;65653;53.106;18.046;2023-05-10T04:08:46;3.50;;;2.50;;
76729;SDS011;65653;53.106;18.046;2023-05-10T04:11:13;4.50;;;2.40;;
76729;SDS011;65653;53.106;18.046;2023-05-10T04:13:40;3.60;;;2.10;;
76729;SDS011;65653;53.106;18.046;2023-05-10T04:16:06;4.00;;;2.60;;
76729;SDS011;65653;53.106;18.046;2023-05-10T04:18:33;3.10;;;1.80;;
76729;SDS011;65653;53.106;18.046;2023-05-10T04:21:00;5.40;;;2.10;;
76729;SDS011;65653;53.106;18.046;2023-05-10T04:23:26;4.20;;;2.10;;
76729;SDS011;65653;53.106;18.046;2023-05-10T04:25:58;3.60;;;1.80;;
76729;SDS011;65653;53.106;18.046;2023-05-10T04:28:26;6.20;;;2.50;;
76729;SDS011;65653;53.106;18.046;2023-05-10T04:30:53;3.10;;;1.80;;
76729;SDS011;65653;53.106;18.046;2023-05-10T04:33:26;4.10;;;2.80;;
76729;SDS011;65653;53.106;18.046;2023-05-10T04:35:52;3.30;;;2.30;;
76729;SDS011;65653;53.106;18.046;2023-05-10T04:38:18;4.10;;;2.30;;
76729;SDS011;65653;53.106;18.046;2023-05-10T04:40:45;8.00;;;2.70;;
76729;SDS011;65653;53.106;18.046;2023-05-10T04:43:12;4.80;;;2.30;;
76729;SDS011;65653;53.106;18.046;2023-05-10T04:45:39;3.20;;;2.20;;
76729;SDS011;65653;53.106;18.046;2023-05-10T04:48:05;3.80;;;2.30;;
76729;SDS011;65653;53.106;18.046;2023-05-10T04:50:32;3.80;;;1.90;;
76729;SDS011;65653;53.106;18.046;2023-05-10T04:52:58;4.30;;;2.30;;
76729;SDS011;65653;53.106;18.046;2023-05-10T04:55:25;3.40;;;2.20;;
76729;SDS011;65653;53.106;18.046;2023-05-10T04:57:52;3.70;;;2.20;;
76729;SDS011;65653;53.106;18.046;2023-05-10T05:00:21;4.30;;;1.80;;
76729;SDS011;65653;53.106;18.046;2023-05-10T05:02:49;5.00;;;2.40;;
76729;SDS011;65653;53.106;18.046;2023-05-10T05:05:15;6.40;;;2.20;;
76729;SDS011;65653;53.106;18.046;2023-05-10T05:07:42;2.60;;;2.10;;
76729;SDS011;65653;53.106;18.046;2023-05-10T05:10:09;5.00;;;2.50;;
76729;SDS011;65653;53.106;18.046;2023-05-10T05:12:35;4.40;;;1.80;;
76729;SDS011;65653;53.106;18.046;2023-05-10T05:15:02;7.40;;;2.30;;
76729;SDS011;65653;53.106;18.046;2023-05-10T05:17:30;6.20;;;2.30;;
76729;SDS011;65653;53.106;18.046;2023-05-10T05:19:57;5.30;;;1.80;;
76729;SDS011;65653;53.106;18.046;2023-05-10T05:22:23;4.40;;;1.90;;
76729;SDS011;65653;53.106;18.046;2023-05-10T05:24:53;7.20;;;2.00;;
76729;SDS011;65653;53.106;18.046;2023-05-10T05:27:29;6.40;;;1.70;;
76729;SDS011;65653;53.106;18.046;2023-05-10T05:29:56;2.60;;;1.90;;
76729;SDS011;65653;53.106;18.046;2023-05-10T05:32:23;3.40;;;1.90;;
76729;SDS011;65653;53.106;18.046;2023-05-10T05:34:50;3.30;;;1.80;;
76729;SDS011;65653;53.106;18.046;2023-05-10T05:37:18;3.30;;;1.70;;
76729;SDS011;65653;53.106;18.046;2023-05-10T05:39:45;2.40;;;1.40;;
76729;SDS011;65653;53.106;18.046;2023-05-10T05:42:13;3.00;;;1.30;;
76729;SDS011;65653;53.106;18.046;2023-05-10T05:44:40;2.30;;;1.50;;
76729;SDS011;65653;53.106;18.046;2023-05-10T05:47:07;3.50;;;2.20;;
76729;SDS011;65653;53.106;18.046;2023-05-10T05:49:33;4.10;;;1.90;;
76729;SDS011;65653;53.106;18.046;2023-05-10T05:52:03;2.50;;;1.80;;
76729;SDS011;65653;53.106;18.046;2023-05-10T05:54:30;4.50;;;1.80;;
76729;SDS011;65653;53.106;18.046;2023-05-10T05:56:57;3.20;;;1.80;;
76729;SDS011;65653;53.106;18.046;2023-05-10T05:59:25;3.50;;;1.80;;
76729;SDS011;65653;53.106;18.046;2023-05-10T06:01:52;5.10;;;2.00;;
76729;SDS011;65653;53.106;18.046;2023-05-10T06:04:19;4.00;;;2.00;;
76729;SDS011;65653;53.106;18.046;2023-05-10T06:06:45;2.50;;;1.60;;
76729;SDS011;65653;53.106;18.046;2023-05-10T06:09:12;3.50;;;1.80;;
76729;SDS011;65653;53.106;18.046;2023-05-10T06:11:38;2.20;;;1.70;;
76729;SDS011;65653;53.106;18.046;2023-05-10T06:14:05;1.70;;;1.30;;
76729;SDS011;65653;53.106;18.046;2023-05-10T06:16:34;2.50;;;1.50;;
76729;SDS011;65653;53.106;18.046;2023-05-10T06:19:01;4.30;;;2.00;;
76729;SDS011;65653;53.106;18.046;2023-05-10T06:21:28;3.70;;;2.00;;
76729;SDS011;65653;53.106;18.046;2023-05-10T06:23:56;2.30;;;1.60;;
76729;SDS011;65653;53.106;18.046;2023-05-10T06:26:23;4.70;;;2.00;;
76729;SDS011;65653;53.106;18.046;2023-05-10T06:28:49;4.30;;;1.70;;
76729;SDS011;65653;53.106;18.046;2023-05-10T06:31:16;3.40;;;1.80;;
76729;SDS011;65653;53.106;18.046;2023-05-10T06:33:43;4.10;;;2.00;;
76729;SDS011;65653;53.106;18.046;2023-05-10T06:36:09;4.50;;;1.80;;
76729;SDS011;65653;53.106;18.046;2023-05-10T06:38:36;4.10;;;1.80;;
76729;SDS011;65653;53.106;18.046;2023-05-10T06:41:02;6.10;;;1.70;;
76729;SDS011;65653;53.106;18.046;2023-05-10T06:43:29;3.20;;;1.90;;
76729;SDS011;65653;53.106;18.046;2023-05-10T06:45:56;2.30;;;1.30;;
76729;SDS011;65653;53.106;18.046;2023-05-10T06:48:22;3.20;;;1.40;;
76729;SDS011;65653;53.106;18.046;2023-05-10T06:50:49;3.80;;;1.70;;
76729;SDS011;65653;53.106;18.046;2023-05-10T06:53:15;2.40;;;1.70;;
76729;SDS011;65653;53.106;18.046;2023-05-10T06:55:42;2.90;;;1.90;;
76729;SDS011;65653;53.106;18.046;2023-05-10T06:58:08;3.10;;;1.70;;
76729;SDS011;65653;53.106;18.046;2023-05-10T07:00:35;3.30;;;1.60;;
76729;SDS011;65653;53.106;18.046;2023-05-10T07:03:05;8.10;;;2.30;;
76729;SDS011;65653;53.106;18.046;2023-05-10T07:05:32;3.30;;;2.20;;
76729;SDS011;65653;53.106;18.046;2023-05-10T07:07:58;2.00;;;1.60;;
76729;SDS011;65653;53.106;18.046;2023-05-10T07:10:27;2.60;;;1.40;;
76729;SDS011;65653;53.106;18.046;2023-05-10T07:12:54;4.10;;;1.80;;
76729;SDS011;65653;53.106;18.046;2023-05-10T07:15:20;4.40;;;1.50;;
76729;SDS011;65653;53.106;18.046;2023-05-10T07:17:47;3.40;;;1.80;;
76729;SDS011;65653;53.106;18.046;2023-05-10T07:20:14;4.90;;;1.50;;
76729;SDS011;65653;53.106;18.046;2023-05-10T07:22:40;2.10;;;1.60;;
76729;SDS011;65653;53.106;18.046;2023-05-10T07:25:07;2.80;;;1.50;;
76729;SDS011;65653;53.106;18.046;2023-05-10T07:27:34;2.10;;;1.50;;
76729;SDS011;65653;53.106;18.046;2023-05-10T07:30:01;2.10;;;1.50;;
76729;SDS011;65653;53.106;18.046;2023-05-10T07:32:27;3.70;;;1.60;;
76729;SDS011;65653;53.106;18.046;2023-05-10T07:34:54;2.30;;;1.80;;
76729;SDS011;65653;53.106;18.046;2023-05-10T07:37:21;2.80;;;1.50;;
76729;SDS011;65653;53.106;18.046;2023-05-10T07:39:47;3.40;;;1.80;;
76729;SDS011;65653;53.106;18.046;2023-05-10T07:42:14;2.70;;;1.70;;
76729;SDS011;65653;53.106;18.046;2023-05-10T07:44:41;2.90;;;1.80;;
76729;SDS011;65653;53.106;18.046;2023-05-10T07:47:08;3.40;;;1.50;;
76729;SDS011;65653;53.106;18.046;2023-05-10T07:49:34;1.50;;;1.40;;
76729;SDS011;65653;53.106;18.046;2023-05-10T07:52:02;2.50;;;1.20;;
76729;SDS011;65653;53.106;18.046;2023-05-10T07:54:30;3.90;;;1.50;;
76729;SDS011;65653;53.106;18.046;2023-05-10T07:56:56;2.10;;;1.10;;
76729;SDS011;65653;53.106;18.046;2023-05-10T07:59:23;3.20;;;1.60;;
76729;SDS011;65653;53.106;18.046;2023-05-10T08:01:49;3.40;;;1.60;;
76729;SDS011;65653;53.106;18.046;2023-05-10T08:04:17;3.10;;;1.20;;
76729;SDS011;65653;53.106;18.046;2023-05-10T08:06:43;5.80;;;1.60;;
76729;SDS011;65653;53.106;18.046;2023-05-10T08:09:10;1.80;;;1.30;;
76729;SDS011;65653;53.106;18.046;2023-05-10T08:11:37;2.10;;;1.40;;
76729;SDS011;65653;53.106;18.046;2023-05-10T08:14:04;3.10;;;1.50;;
76729;SDS011;65653;53.106;18.046;2023-05-10T08:16:30;2.50;;;1.20;;
76729;SDS011;65653;53.106;18.046;2023-05-10T08:18:57;3.20;;;1.50;;
76729;SDS011;65653;53.106;18.046;2023-05-10T08:21:25;1.60;;;1.30;;
76729;SDS011;65653;53.106;18.046;2023-05-10T08:23:52;3.20;;;1.20;;
76729;SDS011;65653;53.106;18.046;2023-05-10T08:26:18;3.20;;;1.60;;
76729;SDS011;65653;53.106;18.046;2023-05-10T08:28:45;1.90;;;1.50;;
76729;SDS011;65653;53.106;18.046;2023-05-10T08:31:11;2.50;;;1.50;;
76729;SDS011;65653;53.106;18.046;2023-05-10T08:33:38;1.70;;;1.40;;
76729;SDS011;65653;53.106;18.046;2023-05-10T08:36:05;4.50;;;1.40;;
76729;SDS011;65653;53.106;18.046;2023-05-10T08:38:31;2.60;;;1.20;;
76729;SDS011;65653;53.106;18.046;2023-05-10T08:40:58;5.60;;;1.90;;
76729;SDS011;65653;53.106;18.046;2023-05-10T08:43:26;3.40;;;1.20;;
76729;SDS011;65653;53.106;18.046;2023-05-10T08:45:55;3.40;;;1.70;;
76729;SDS011;65653;53.106;18.046;2023-05-10T08:48:24;2.80;;;1.20;;
76729;SDS011;65653;53.106;18.046;2023-05-10T08:50:52;2.50;;;1.40;;
76729;SDS011;65653;53.106;18.046;2023-05-10T08:53:24;1.80;;;1.40;;
76729;SDS011;65653;53.106;18.046;2023-05-10T08:55:53;3.00;;;1.70;;
76729;SDS011;65653;53.106;18.046;2023-05-10T08:58:21;2.20;;;1.40;;
76729;SDS011;65653;53.106;18.046;2023-05-10T09:00:48;4.00;;;1.80;;
76729;SDS011;65653;53.106;18.046;2023-05-10T09:03:17;5.20;;;1.70;;
76729;SDS011;65653;53.106;18.046;2023-05-10T09:05:44;7.10;;;1.40;;
76729;SDS011;65653;53.106;18.046;2023-05-10T09:08:11;2.40;;;1.40;;
76729;SDS011;65653;53.106;18.046;2023-05-10T09:10:39;2.70;;;1.60;;
76729;SDS011;65653;53.106;18.046;2023-05-10T09:13:06;2.90;;;1.40;;
76729;SDS011;65653;53.106;18.046;2023-05-10T09:15:35;4.40;;;1.40;;
76729;SDS011;65653;53.106;18.046;2023-05-10T09:18:03;4.40;;;1.70;;
76729;SDS011;65653;53.106;18.046;2023-05-10T09:20:30;4.10;;;2.00;;
76729;SDS011;65653;53.106;18.046;2023-05-10T09:22:57;3.70;;;2.40;;
76729;SDS011;65653;53.106;18.046;2023-05-10T09:25:23;4.20;;;2.60;;
76729;SDS011;65653;53.106;18.046;2023-05-10T09:27:50;2.40;;;1.90;;
76729;SDS011;65653;53.106;18.046;2023-05-10T09:30:25;2.80;;;1.50;;
76729;SDS011;65653;53.106;18.046;2023-05-10T09:32:53;3.30;;;1.40;;
76729;SDS011;65653;53.106;18.046;2023-05-10T09:35:23;4.30;;;1.60;;
76729;SDS011;65653;53.106;18.046;2023-05-10T09:37:55;3.50;;;2.10;;
76729;SDS011;65653;53.106;18.046;2023-05-10T09:40:24;4.90;;;2.70;;
76729;SDS011;65653;53.106;18.046;2023-05-10T09:42:53;4.00;;;1.90;;
76729;SDS011;65653;53.106;18.046;2023-05-10T09:45:23;3.90;;;2.10;;
76729;SDS011;65653;53.106;18.046;2023-05-10T09:47:51;4.20;;;1.80;;
76729;SDS011;65653;53.106;18.046;2023-05-10T09:50:18;4.50;;;2.10;;
76729;SDS011;65653;53.106;18.046;2023-05-10T09:53:04;9.20;;;6.90;;
76729;SDS011;65653;53.106;18.046;2023-05-10T09:55:42;8.20;;;4.50;;
76729;SDS011;65653;53.106;18.046;2023-05-10T09:58:13;6.10;;;3.70;;
76729;SDS011;65653;53.106;18.046;2023-05-10T10:00:41;2.20;;;1.80;;
76729;SDS011;65653;53.106;18.046;2023-05-10T10:03:16;3.50;;;1.90;;
76729;SDS011;65653;53.106;18.046;2023-05-10T10:05:44;2.80;;;1.70;;
76729;SDS011;65653;53.106;18.046;2023-05-10T10:08:12;8.70;;;5.00;;
76729;SDS011;65653;53.106;18.046;2023-05-10T10:10:40;17.30;;;10.70;;
76729;SDS011;65653;53.106;18.046;2023-05-10T10:13:07;11.50;;;7.60;;
76729;SDS011;65653;53.106;18.046;2023-05-10T10:15:35;7.00;;;3.80;;
76729;SDS011;65653;53.106;18.046;2023-05-10T10:18:05;5.30;;;3.10;;
76729;SDS011;65653;53.106;18.046;2023-05-10T10:20:33;6.10;;;3.70;;
76729;SDS011;65653;53.106;18.046;2023-05-10T10:23:03;4.30;;;1.70;;
76729;SDS011;65653;53.106;18.046;2023-05-10T10:25:29;3.70;;;1.90;;
76729;SDS011;65653;53.106;18.046;2023-05-10T10:28:07;1.50;;;1.30;;
76729;SDS011;65653;53.106;18.046;2023-05-10T10:30:56;4.20;;;1.90;;
76729;SDS011;65653;53.106;18.046;2023-05-10T10:36:15;3.50;;;1.60;;
76729;SDS011;65653;53.106;18.046;2023-05-10T10:41:33;5.50;;;1.60;;
76729;SDS011;65653;53.106;18.046;2023-05-10T10:49:25;3.60;;;1.60;;
76729;SDS011;65653;53.106;18.046;2023-05-10T10:54:54;2.10;;;1.60;;
76729;SDS011;65653;53.106;18.046;2023-05-10T10:57:25;2.50;;;1.90;;
76729;SDS011;65653;53.106;18.046;2023-05-10T11:08:12;9.20;;;3.20;;
76729;SDS011;65653;53.106;18.046;2023-05-10T11:10:50;3.90;;;1.80;;
76729;SDS011;65653;53.106;18.046;2023-05-10T11:13:26;5.30;;;1.90;;
76729;SDS011;65653;53.106;18.046;2023-05-10T11:16:10;2.60;;;1.70;;
76729;SDS011;65653;53.106;18.046;2023-05-10T11:18:38;3.00;;;1.60;;
76729;SDS011;65653;53.106;18.046;2023-05-10T11:21:05;5.90;;;2.00;;
76729;SDS011;65653;53.106;18.046;2023-05-10T11:23:58;5.00;;;1.70;;
76729;SDS011;65653;53.106;18.046;2023-05-10T11:26:25;4.20;;;1.60;;
76729;SDS011;65653;53.106;18.046;2023-05-10T11:28:56;1.70;;;1.40;;
76729;SDS011;65653;53.106;18.046;2023-05-10T11:31:25;3.80;;;2.00;;
76729;SDS011;65653;53.106;18.046;2023-05-10T11:33:53;4.00;;;2.10;;
76729;SDS011;65653;53.106;18.046;2023-05-10T11:36:26;7.20;;;1.70;;
76729;SDS011;65653;53.106;18.046;2023-05-10T11:38:54;3.60;;;1.70;;
76729;SDS011;65653;53.106;18.046;2023-05-10T11:41:22;3.10;;;1.50;;
76729;SDS011;65653;53.106;18.046;2023-05-10T11:43:51;5.30;;;2.00;;
76729;SDS011;65653;53.106;18.046;2023-05-10T11:46:22;2.50;;;1.30;;
76729;SDS011;65653;53.106;18.046;2023-05-10T11:48:50;2.60;;;1.10;;
76729;SDS011;65653;53.106;18.046;2023-05-10T11:51:22;2.70;;;1.50;;
76729;SDS011;65653;53.106;18.046;2023-05-10T11:53:50;3.10;;;1.20;;
76729;SDS011;65653;53.106;18.046;2023-05-10T11:58:54;4.00;;;1.50;;
76729;SDS011;65653;53.106;18.046;2023-05-10T12:01:23;4.90;;;1.60;;
76729;SDS011;65653;53.106;18.046;2023-05-10T12:03:51;1.90;;;1.30;;
76729;SDS011;65653;53.106;18.046;2023-05-10T12:06:19;2.50;;;1.30;;
76729;SDS011;65653;53.106;18.046;2023-05-10T12:08:47;2.90;;;1.30;;
76729;SDS011;65653;53.106;18.046;2023-05-10T12:11:20;5.60;;;1.50;;
76729;SDS011;65653;53.106;18.046;2023-05-10T12:13:55;2.30;;;1.30;;
76729;SDS011;65653;53.106;18.046;2023-05-10T12:16:23;2.90;;;1.50;;
76729;SDS011;65653;53.106;18.046;2023-05-10T12:18:52;2.70;;;1.60;;
76729;SDS011;65653;53.106;18.046;2023-05-10T12:21:25;2.80;;;1.60;;
76729;SDS011;65653;53.106;18.046;2023-05-10T12:23:54;3.70;;;1.20;;
76729;SDS011;65653;53.106;18.046;2023-05-10T12:26:25;3.50;;;1.70;;
76729;SDS011;65653;53.106;18.046;2023-05-10T12:28:54;4.30;;;1.50;;
76729;SDS011;65653;53.106;18.046;2023-05-10T12:31:21;2.90;;;1.50;;
76729;SDS011;65653;53.106;18.046;2023-05-10T12:33:47;8.30;;;1.70;;
76729;SDS011;65653;53.106;18.046;2023-05-10T12:36:15;3.90;;;1.30;;
76729;SDS011;65653;53.106;18.046;2023-05-10T12:38:45;4.20;;;1.30;;
76729;SDS011;65653;53.106;18.046;2023-05-10T12:41:15;3.40;;;1.50;;
76729;SDS011;65653;53.106;18.046;2023-05-10T12:43:43;7.30;;;2.50;;
76729;SDS011;65653;53.106;18.046;2023-05-10T12:46:12;4.20;;;1.70;;
76729;SDS011;65653;53.106;18.046;2023-05-10T12:48:40;7.90;;;2.00;;
76729;SDS011;65653;53.106;18.046;2023-05-10T12:51:08;3.90;;;1.80;;
76729;SDS011;65653;53.106;18.046;2023-05-10T12:53:35;6.40;;;1.50;;
76729;SDS011;65653;53.106;18.046;2023-05-10T12:56:02;5.10;;;1.30;;
76729;SDS011;65653;53.106;18.046;2023-05-10T12:58:31;3.80;;;1.70;;
76729;SDS011;65653;53.106;18.046;2023-05-10T13:00:59;4.70;;;2.00;;
76729;SDS011;65653;53.106;18.046;2023-05-10T13:03:26;5.40;;;1.80;;
76729;SDS011;65653;53.106;18.046;2023-05-10T13:05:53;3.70;;;1.30;;
76729;SDS011;65653;53.106;18.046;2023-05-10T13:08:19;3.60;;;1.40;;
76729;SDS011;65653;53.106;18.046;2023-05-10T13:10:46;3.00;;;1.30;;
76729;SDS011;65653;53.106;18.046;2023-05-10T13:13:12;4.00;;;1.50;;
76729;SDS011;65653;53.106;18.046;2023-05-10T13:15:39;4.20;;;1.20;;
76729;SDS011;65653;53.106;18.046;2023-05-10T13:18:06;3.10;;;1.70;;
76729;SDS011;65653;53.106;18.046;2023-05-10T13:20:33;4.70;;;2.50;;
76729;SDS011;65653;53.106;18.046;2023-05-10T13:22:59;2.90;;;1.70;;
76729;SDS011;65653;53.106;18.046;2023-05-10T13:25:26;5.90;;;1.60;;
76729;SDS011;65653;53.106;18.046;2023-05-10T13:27:53;3.20;;;1.70;;
76729;SDS011;65653;53.106;18.046;2023-05-10T13:30:19;3.90;;;1.70;;
76729;SDS011;65653;53.106;18.046;2023-05-10T13:32:46;2.60;;;1.90;;
76729;SDS011;65653;53.106;18.046;2023-05-10T13:35:13;5.60;;;1.70;;
76729;SDS011;65653;53.106;18.046;2023-05-10T13:37:40;5.10;;;2.90;;
76729;SDS011;65653;53.106;18.046;2023-05-10T13:40:07;4.00;;;2.30;;
76729;SDS011;65653;53.106;18.046;2023-05-10T13:42:33;3.30;;;1.40;;
76729;SDS011;65653;53.106;18.046;2023-05-10T13:45:00;4.60;;;1.60;;
76729;SDS011;65653;53.106;18.046;2023-05-10T13:47:27;4.90;;;1.80;;
76729;SDS011;65653;53.106;18.046;2023-05-10T13:49:54;8.00;;;1.80;;
76729;SDS011;65653;53.106;18.046;2023-05-10T13:52:21;4.90;;;1.80;;
76729;SDS011;65653;53.106;18.046;2023-05-10T13:54:47;5.70;;;2.10;;
76729;SDS011;65653;53.106;18.046;2023-05-10T13:57:14;3.70;;;1.90;;
76729;SDS011;65653;53.106;18.046;2023-05-10T13:59:43;6.30;;;1.70;;
76729;SDS011;65653;53.106;18.046;2023-05-10T14:02:10;3.10;;;1.60;;
76729;SDS011;65653;53.106;18.046;2023-05-10T14:04:38;4.40;;;1.70;;
76729;SDS011;65653;53.106;18.046;2023-05-10T14:07:05;3.30;;;1.60;;
76729;SDS011;65653;53.106;18.046;2023-05-10T14:09:31;6.90;;;1.70;;
76729;SDS011;65653;53.106;18.046;2023-05-10T14:11:58;3.60;;;1.80;;
76729;SDS011;65653;53.106;18.046;2023-05-10T14:14:25;4.30;;;1.60;;
76729;SDS011;65653;53.106;18.046;2023-05-10T14:16:51;6.30;;;1.60;;
76729;SDS011;65653;53.106;18.046;2023-05-10T14:19:18;2.30;;;1.70;;
76729;SDS011;65653;53.106;18.046;2023-05-10T14:21:44;5.40;;;1.30;;
76729;SDS011;65653;53.106;18.046;2023-05-10T14:24:11;6.30;;;1.90;;
76729;SDS011;65653;53.106;18.046;2023-05-10T14:26:38;4.10;;;1.60;;
76729;SDS011;65653;53.106;18.046;2023-05-10T14:29:04;3.20;;;1.60;;
76729;SDS011;65653;53.106;18.046;2023-05-10T14:31:31;6.90;;;1.70;;
76729;SDS011;65653;53.106;18.046;2023-05-10T14:33:58;2.50;;;1.60;;
76729;SDS011;65653;53.106;18.046;2023-05-10T14:36:25;5.50;;;1.70;;
76729;SDS011;65653;53.106;18.046;2023-05-10T14:38:52;3.50;;;1.30;;
76729;SDS011;65653;53.106;18.046;2023-05-10T14:41:18;3.50;;;1.50;;
76729;SDS011;65653;53.106;18.046;2023-05-10T14:43:45;4.80;;;1.60;;
76729;SDS011;65653;53.106;18.046;2023-05-10T14:46:12;4.10;;;1.50;;
76729;SDS011;65653;53.106;18.046;2023-05-10T14:48:39;2.10;;;1.40;;
76729;SDS011;65653;53.106;18.046;2023-05-10T14:51:05;3.40;;;2.30;;
76729;SDS011;65653;53.106;18.046;2023-05-10T14:53:33;2.70;;;1.60;;
76729;SDS011;65653;53.106;18.046;2023-05-10T14:55:59;3.30;;;1.60;;
76729;SDS011;65653;53.106;18.046;2023-05-10T14:58:27;6.60;;;1.80;;
76729;SDS011;65653;53.106;18.046;2023-05-10T15:00:54;6.70;;;1.90;;
76729;SDS011;65653;53.106;18.046;2023-05-10T15:03:21;3.30;;;1.80;;
76729;SDS011;65653;53.106;18.046;2023-05-10T15:05:48;6.60;;;1.70;;
76729;SDS011;65653;53.106;18.046;2023-05-10T15:08:14;6.40;;;1.80;;
76729;SDS011;65653;53.106;18.046;2023-05-10T15:10:41;3.90;;;1.90;;
76729;SDS011;65653;53.106;18.046;2023-05-10T15:13:08;2.30;;;1.80;;
76729;SDS011;65653;53.106;18.046;2023-05-10T15:15:34;5.40;;;1.50;;
76729;SDS011;65653;53.106;18.046;2023-05-10T15:18:01;5.10;;;1.80;;
76729;SDS011;65653;53.106;18.046;2023-05-10T15:20:28;5.40;;;1.80;;
76729;SDS011;65653;53.106;18.046;2023-05-10T15:22:55;2.40;;;1.50;;